createdAt,value
2023-01-11T00:00:18.905Z,45.53
2023-01-11T00:01:41.834Z,61.20
2023-01-11T00:03:06.233Z,74.25
2023-01-11T00:04:30.520Z,66.40
2023-01-11T00:05:56.804Z,61.67
2023-01-11T00:07:19.720Z,66.70
2023-01-11T00:08:41.447Z,63.90
2023-01-11T00:10:04.756Z,63.15
2023-01-11T00:11:26.820Z,53.63
2023-01-11T00:12:49.895Z,59.15
2023-01-11T00:14:11.923Z,53.40
2023-01-11T00:15:36.248Z,61.90
2023-01-11T00:16:59.748Z,59.45
2023-01-11T00:18:25.866Z,49.80
2023-01-11T00:19:47.680Z,50.85
2023-01-11T00:21:11.642Z,51.63
2023-01-11T00:22:33.415Z,53.97
2023-01-11T00:23:56.223Z,60.28
2023-01-11T00:25:19.068Z,47.40
2023-01-11T00:26:42.036Z,56.92
2023-01-11T00:28:04.296Z,47.05
2023-01-11T00:29:27.880Z,47.72
2023-01-11T00:30:50.780Z,50.95
2023-01-11T00:32:13.595Z,63.92
2023-01-11T00:33:37.680Z,62.25
2023-01-11T00:34:59.935Z,60.75
2023-01-11T00:36:22.696Z,56.25
2023-01-11T00:37:44.504Z,58.53
2023-01-11T00:39:07.233Z,53.67
2023-01-11T00:40:48.452Z,51.50
2023-01-11T00:42:29.404Z,52.22
2023-01-11T00:44:10.290Z,58.15
2023-01-11T00:45:50.575Z,64.95
2023-01-11T00:47:37.712Z,53.10
2023-01-11T00:49:01.764Z,42.63
2023-01-11T00:50:23.906Z,47.10
2023-01-11T00:51:46.683Z,53.67
2023-01-11T00:53:10.316Z,52.35
2023-01-11T00:54:32.023Z,54.83
2023-01-11T00:55:54.949Z,46.17
2023-01-11T00:57:16.807Z,46.60
2023-01-11T00:58:39.625Z,43.35
2023-01-11T01:00:01.991Z,45.42
2023-01-11T01:01:25.226Z,47.47
2023-01-11T01:02:48.580Z,39.85
2023-01-11T01:04:11.821Z,41.95
2023-01-11T01:05:34.703Z,31.52
2023-01-11T01:06:56.738Z,33.20
2023-01-11T01:08:19.745Z,34.70
2023-01-11T01:09:41.914Z,35.08
2023-01-11T01:11:04.681Z,39.78
2023-01-11T01:12:44.873Z,38.38
2023-01-11T01:14:25.069Z,33.85
2023-01-11T01:15:47.935Z,42.92
2023-01-11T01:17:09.750Z,36.40
2023-01-11T01:18:32.535Z,36.97
2023-01-11T01:19:55.656Z,42.28
2023-01-11T01:21:18.390Z,39.75
2023-01-11T01:22:40.157Z,37.47
2023-01-11T01:24:02.960Z,38.28
2023-01-11T01:25:25.805Z,45.35
2023-01-11T01:26:48.156Z,37.00
2023-01-11T01:28:10.936Z,37.72
2023-01-11T01:29:33.745Z,36.20
2023-01-11T01:30:55.571Z,30.30
2023-01-11T01:32:18.407Z,38.13
2023-01-11T01:33:40.507Z,40.67
2023-01-11T01:35:04.960Z,34.33
2023-01-11T01:36:26.720Z,33.90
2023-01-11T01:37:49.504Z,33.08
2023-01-11T01:39:11.875Z,31.52
2023-01-11T01:40:34.745Z,36.95
2023-01-11T01:41:57.620Z,33.95
2023-01-11T01:43:19.717Z,32.00
2023-01-11T01:44:59.384Z,32.97
2023-01-11T01:46:24.723Z,36.17
2023-01-11T01:47:49.016Z,37.70
2023-01-11T01:49:14.542Z,39.55
2023-01-11T01:50:39.382Z,39.25
2023-01-11T01:52:02.760Z,43.30
2023-01-11T01:53:29.664Z,48.47
2023-01-11T01:54:51.909Z,63.70
2023-01-11T01:56:17.250Z,74.35
2023-01-11T01:57:40.778Z,73.35
2023-01-11T01:59:07.786Z,78.72
2023-01-11T02:00:30.743Z,53.78
2023-01-11T02:01:52.894Z,66.70
2023-01-11T02:03:18.496Z,37.10
2023-01-11T02:04:42.244Z,42.50
2023-01-11T02:06:07.250Z,55.92
2023-01-11T02:07:33.175Z,75.38
2023-01-11T02:08:59.023Z,54.70
2023-01-11T02:10:23.338Z,45.15
2023-01-11T02:11:45.711Z,48.75
2023-01-11T02:13:10.997Z,54.30
2023-01-11T02:14:35.406Z,42.35
2023-01-11T02:15:38.470Z,40.45
2023-01-11T02:16:40.636Z,42.97
2023-01-11T02:17:43.473Z,45.08
2023-01-11T02:18:45.450Z,42.33
2023-01-11T02:19:54.712Z,47.40
2023-01-11T02:21:12.668Z,44.53
2023-01-11T02:22:34.011Z,39.55
2023-01-11T02:23:52.039Z,38.20
2023-01-11T02:25:10.626Z,38.35
2023-01-11T02:26:36.008Z,37.75
2023-01-11T02:27:55.605Z,39.08
2023-01-11T02:29:01.782Z,54.30
2023-01-11T02:30:10.881Z,61.33
2023-01-11T02:31:17.170Z,68.03
2023-01-11T02:32:26.948Z,70.55
2023-01-11T02:33:33.216Z,53.38
2023-01-11T02:34:41.898Z,48.13
2023-01-11T02:35:52.349Z,40.25
2023-01-11T02:37:06.812Z,54.47
2023-01-11T02:38:14.415Z,45.10
2023-01-11T02:39:22.485Z,46.97
2023-01-11T02:40:28.065Z,48.58
2023-01-11T02:41:56.032Z,65.97
2023-01-11T02:43:22.706Z,98.53
2023-01-11T02:44:45.337Z,58.72
2023-01-11T02:45:51.563Z,64.78
2023-01-11T02:46:57.890Z,64.85
2023-01-11T02:48:02.524Z,74.40
2023-01-11T02:49:10.618Z,79.93
2023-01-11T02:50:18.478Z,64.47
2023-01-11T02:51:25.079Z,66.32
2023-01-11T02:52:31.963Z,53.38
2023-01-11T02:53:38.786Z,53.60
2023-01-11T02:54:42.486Z,52.60
2023-01-11T02:55:48.466Z,51.60
2023-01-11T02:56:53.156Z,50.40
2023-01-11T02:57:57.458Z,46.55
2023-01-11T02:59:02.519Z,50.72
2023-01-11T03:00:06.816Z,46.92
2023-01-11T03:01:09.572Z,47.30
2023-01-11T03:02:14.023Z,44.25
2023-01-11T03:03:17.843Z,51.28
2023-01-11T03:04:25.486Z,47.40
2023-01-11T03:05:27.385Z,45.95
2023-01-11T03:06:33.434Z,42.67
2023-01-11T03:07:43.755Z,38.58
2023-01-11T03:09:02.137Z,38.58
2023-01-11T03:10:11.385Z,37.53
2023-01-11T03:11:36.683Z,49.03
2023-01-11T03:12:54.920Z,42.45
2023-01-11T03:14:05.054Z,50.13
2023-01-11T03:15:17.350Z,51.42
2023-01-11T03:16:26.389Z,49.42
2023-01-11T03:17:39.639Z,43.88
2023-01-11T03:18:48.024Z,48.50
2023-01-11T03:19:52.823Z,62.40
2023-01-11T03:21:00.178Z,56.35
2023-01-11T03:22:06.721Z,51.90
2023-01-11T03:23:15.156Z,40.65
2023-01-11T03:24:27.900Z,45.78
2023-01-11T03:25:34.196Z,35.80
2023-01-11T03:26:45.706Z,35.97
2023-01-11T03:27:52.632Z,35.83
2023-01-11T03:29:01.804Z,37.92
2023-01-11T03:30:08.975Z,34.80
2023-01-11T03:31:16.339Z,36.83
2023-01-11T03:32:24.339Z,38.75
2023-01-11T03:33:33.946Z,54.30
2023-01-11T03:34:38.717Z,61.70
2023-01-11T03:35:46.103Z,58.83
2023-01-11T03:36:50.953Z,66.38
2023-01-11T03:37:56.664Z,45.25
2023-01-11T03:39:01.162Z,50.42
2023-01-11T03:40:09.360Z,49.63
2023-01-11T03:41:14.955Z,55.47
2023-01-11T03:42:18.587Z,58.53
2023-01-11T03:43:21.758Z,61.05
2023-01-11T03:44:26.544Z,51.92
2023-01-11T03:45:31.055Z,43.03
2023-01-11T03:46:37.237Z,40.20
2023-01-11T03:47:39.220Z,38.22
2023-01-11T03:48:46.062Z,38.50
2023-01-11T03:49:50.686Z,40.72
2023-01-11T03:50:54.864Z,48.35
2023-01-11T03:51:58.251Z,42.15
2023-01-11T03:53:01.830Z,45.13
2023-01-11T03:54:06.879Z,44.13
2023-01-11T03:55:11.542Z,41.20
2023-01-11T03:56:17.139Z,44.00
2023-01-11T03:57:22.471Z,54.30
2023-01-11T03:58:25.822Z,38.25
2023-01-11T03:59:29.012Z,48.17
2023-01-11T04:00:32.689Z,53.88
2023-01-11T04:01:35.518Z,48.97
2023-01-11T04:02:40.585Z,38.78
2023-01-11T04:03:43.362Z,44.50
2023-01-11T04:04:45.195Z,36.97
2023-01-11T04:05:51.743Z,38.70
2023-01-11T04:06:53.837Z,42.78
2023-01-11T04:07:56.750Z,55.55
2023-01-11T04:08:58.593Z,54.47
2023-01-11T04:10:01.427Z,55.58
2023-01-11T04:11:03.954Z,70.68
2023-01-11T04:12:07.265Z,63.40
2023-01-11T04:13:09.115Z,45.03
2023-01-11T04:14:11.958Z,43.92
2023-01-11T04:15:14.985Z,44.05
2023-01-11T04:16:19.247Z,44.75
2023-01-11T04:17:21.107Z,58.58
2023-01-11T04:18:23.905Z,55.10
2023-01-11T04:19:25.789Z,64.68
2023-01-11T04:20:28.548Z,63.42
2023-01-11T04:21:30.396Z,64.00
2023-01-11T04:22:33.221Z,57.03
2023-01-11T04:23:35.666Z,63.97
2023-01-11T04:24:38.491Z,52.65
2023-01-11T04:25:40.278Z,53.28
2023-01-11T04:26:43.011Z,53.38
2023-01-11T04:27:45.021Z,56.50
2023-01-11T04:28:47.825Z,66.20
2023-01-11T04:29:49.593Z,55.78
2023-01-11T04:30:52.420Z,52.55
2023-01-11T04:31:55.697Z,47.28
2023-01-11T04:32:58.839Z,49.30
2023-01-11T04:34:00.683Z,50.70
2023-01-11T04:35:03.474Z,61.80
2023-01-11T04:36:06.342Z,66.25
2023-01-11T04:37:09.523Z,60.22
2023-01-11T04:38:11.532Z,57.83
2023-01-11T04:39:14.463Z,54.70
2023-01-11T04:40:16.978Z,47.75
2023-01-11T04:41:37.268Z,44.45
2023-01-11T04:42:40.268Z,43.50
2023-01-11T04:43:42.376Z,45.42
2023-01-11T04:44:45.480Z,46.30
2023-01-11T04:45:48.240Z,46.45
2023-01-11T04:46:50.294Z,53.53
2023-01-11T04:47:56.730Z,57.15
2023-01-11T04:48:58.976Z,49.35
2023-01-11T04:50:02.163Z,55.72
2023-01-11T04:51:04.287Z,47.85
2023-01-11T04:52:07.103Z,49.10
2023-01-11T04:53:08.874Z,56.03
2023-01-11T04:54:11.620Z,65.30
2023-01-11T04:55:13.413Z,84.25
2023-01-11T04:56:16.827Z,89.55
2023-01-11T04:57:18.641Z,82.10
2023-01-11T04:58:21.800Z,93.50
2023-01-11T04:59:23.861Z,92.53
2023-01-11T05:00:26.618Z,79.82
2023-01-11T05:01:28.460Z,67.05
2023-01-11T05:02:31.304Z,55.72
2023-01-11T05:03:34.632Z,51.60
2023-01-11T05:04:37.465Z,51.92
2023-01-11T05:05:39.301Z,49.00
2023-01-11T05:06:43.073Z,42.50
2023-01-11T05:07:44.919Z,45.13
2023-01-11T05:08:48.337Z,47.90
2023-01-11T05:09:51.148Z,43.97
2023-01-11T05:10:53.513Z,49.20
2023-01-11T05:11:56.275Z,54.70
2023-01-11T05:12:58.039Z,58.45
2023-01-11T05:14:00.854Z,55.13
2023-01-11T05:15:02.702Z,58.58
2023-01-11T05:16:06.180Z,67.05
2023-01-11T05:17:08.948Z,50.03
2023-01-11T05:18:11.107Z,42.38
2023-01-11T05:19:15.182Z,38.67
2023-01-11T05:20:17.216Z,40.83
2023-01-11T05:21:20.905Z,38.28
2023-01-11T05:22:22.687Z,39.22
2023-01-11T05:23:25.399Z,41.72
2023-01-11T05:24:28.157Z,42.15
2023-01-11T05:25:29.942Z,38.25
2023-01-11T05:26:35.080Z,39.72
2023-01-11T05:27:36.960Z,40.22
2023-01-11T05:28:39.849Z,39.20
2023-01-11T05:29:41.621Z,38.95
2023-01-11T05:30:44.751Z,40.38
2023-01-11T05:31:46.898Z,42.97
2023-01-11T05:32:49.762Z,42.58
2023-01-11T05:33:51.961Z,49.67
2023-01-11T05:34:56.056Z,47.65
2023-01-11T05:35:58.961Z,46.15
2023-01-11T05:37:02.063Z,44.42
2023-01-11T05:38:03.905Z,42.42
2023-01-11T05:39:06.958Z,41.65
2023-01-11T05:40:10.031Z,43.13
2023-01-11T05:41:14.903Z,43.78
2023-01-11T05:42:17.687Z,40.78
2023-01-11T05:43:19.488Z,44.20
2023-01-11T05:44:39.703Z,44.15
2023-01-11T05:45:41.520Z,44.53
2023-01-11T05:46:45.349Z,44.85
2023-01-11T05:47:47.117Z,42.25
2023-01-11T05:48:50.328Z,42.53
2023-01-11T05:49:52.373Z,45.05
2023-01-11T05:50:57.242Z,47.83
2023-01-11T05:51:59.073Z,43.30
2023-01-11T05:53:02.153Z,43.20
2023-01-11T05:54:05.544Z,43.35
2023-01-11T05:55:09.545Z,43.75
2023-01-11T05:56:11.867Z,45.13
2023-01-11T05:57:14.772Z,45.47
2023-01-11T05:58:16.558Z,47.58
2023-01-11T05:59:19.407Z,43.47
2023-01-11T06:00:22.015Z,46.92
2023-01-11T06:01:26.202Z,46.88
2023-01-11T06:02:28.278Z,47.75
2023-01-11T06:03:31.102Z,49.25
2023-01-11T06:04:32.954Z,46.05
2023-01-11T06:05:36.006Z,46.42
2023-01-11T06:06:42.704Z,44.63
2023-01-11T06:07:44.889Z,47.03
2023-01-11T06:08:48.077Z,45.40
2023-01-11T06:09:49.843Z,48.35
2023-01-11T06:10:53.057Z,52.05
2023-01-11T06:11:56.297Z,55.67
2023-01-11T06:13:13.024Z,54.10
2023-01-11T06:14:15.892Z,52.33
2023-01-11T06:15:17.702Z,54.63
2023-01-11T06:16:22.097Z,62.05
2023-01-11T06:17:23.888Z,65.30
2023-01-11T06:18:27.016Z,69.47
2023-01-11T06:19:28.786Z,70.20
2023-01-11T06:20:31.527Z,76.85
2023-01-11T06:21:35.578Z,88.97
2023-01-11T06:22:38.758Z,86.47
2023-01-11T06:23:42.935Z,82.55
2023-01-11T06:24:45.782Z,84.28
2023-01-11T06:25:47.677Z,88.35
2023-01-11T06:26:53.258Z,87.63
2023-01-11T06:27:55.141Z,88.43
2023-01-11T06:28:57.988Z,66.18
2023-01-11T06:29:59.783Z,71.20
2023-01-11T06:31:02.854Z,83.50
2023-01-11T06:32:06.131Z,74.63
2023-01-11T06:33:08.167Z,68.97
2023-01-11T06:34:11.573Z,76.97
2023-01-11T06:35:13.443Z,69.63
2023-01-11T06:36:16.576Z,83.22
2023-01-11T06:37:18.602Z,70.22
2023-01-11T06:38:24.270Z,91.43
2023-01-11T06:39:27.144Z,71.05
2023-01-11T06:40:29.519Z,80.75
2023-01-11T06:41:32.525Z,79.60
2023-01-11T06:42:34.344Z,78.80
2023-01-11T06:43:38.170Z,82.63
2023-01-11T06:44:39.994Z,74.18
2023-01-11T06:45:45.563Z,75.65
2023-01-11T06:46:48.642Z,84.43
2023-01-11T06:47:51.602Z,55.58
2023-01-11T06:48:53.453Z,61.15
2023-01-11T06:49:56.485Z,69.43
2023-01-11T06:50:58.779Z,74.72
2023-01-11T06:52:01.510Z,81.05
2023-01-11T06:53:03.439Z,69.25
2023-01-11T06:54:07.671Z,63.60
2023-01-11T06:55:10.405Z,71.25
2023-01-11T06:56:15.056Z,67.10
2023-01-11T06:57:16.929Z,73.93
2023-01-11T06:58:19.807Z,62.65
2023-01-11T06:59:22.653Z,66.30
2023-01-11T07:00:25.342Z,77.63
2023-01-11T07:01:30.386Z,72.72
2023-01-11T07:02:32.869Z,63.70
2023-01-11T07:03:35.620Z,77.47
2023-01-11T07:04:37.431Z,57.15
2023-01-11T07:05:56.941Z,65.10
2023-01-11T07:06:59.103Z,74.95
2023-01-11T07:08:14.062Z,67.63
2023-01-11T07:09:35.353Z,57.00
2023-01-11T07:10:51.344Z,55.33
2023-01-11T07:12:14.384Z,68.32
2023-01-11T07:13:34.120Z,68.60
2023-01-11T07:14:54.035Z,57.53
2023-01-11T07:16:11.320Z,62.45
2023-01-11T07:17:33.118Z,58.38
2023-01-11T07:18:51.219Z,50.88
2023-01-11T07:20:14.623Z,61.03
2023-01-11T07:21:34.077Z,63.03
2023-01-11T07:22:51.708Z,60.50
2023-01-11T07:24:14.144Z,58.63
2023-01-11T07:25:32.632Z,60.80
2023-01-11T07:26:41.038Z,63.17
2023-01-11T07:27:42.837Z,43.65
2023-01-11T07:28:46.947Z,58.00
2023-01-11T07:29:48.690Z,64.63
2023-01-11T07:30:58.847Z,59.08
2023-01-11T07:32:01.279Z,64.00
2023-01-11T07:33:06.316Z,63.40
2023-01-11T07:34:09.822Z,57.83
2023-01-11T07:35:12.042Z,55.30
2023-01-11T07:36:14.816Z,49.75
2023-01-11T07:37:28.526Z,53.10
2023-01-11T07:38:32.166Z,54.65
2023-01-11T07:39:43.108Z,53.95
2023-01-11T07:40:47.829Z,59.38
2023-01-11T07:42:08.142Z,56.80
2023-01-11T07:43:14.162Z,50.15
2023-01-11T07:44:17.110Z,47.75
2023-01-11T07:45:19.244Z,53.13
2023-01-11T07:46:22.093Z,55.90
2023-01-11T07:47:23.881Z,55.15
2023-01-11T07:48:27.707Z,57.55
2023-01-11T07:49:29.695Z,58.65
2023-01-11T07:50:32.621Z,46.25
2023-01-11T07:51:34.889Z,58.08
2023-01-11T07:52:37.632Z,69.78
2023-01-11T07:53:40.433Z,55.88
2023-01-11T07:54:42.295Z,50.63
2023-01-11T07:55:45.055Z,63.08
2023-01-11T07:56:49.216Z,56.25
2023-01-11T07:57:51.260Z,63.35
2023-01-11T07:58:54.026Z,59.53
2023-01-11T07:59:55.761Z,61.03
2023-01-11T08:01:00.307Z,56.08
2023-01-11T08:02:02.111Z,68.55
2023-01-11T08:03:05.353Z,66.70
2023-01-11T08:04:08.442Z,70.30
2023-01-11T08:05:11.286Z,67.57
2023-01-11T08:06:14.537Z,59.90
2023-01-11T08:07:16.381Z,70.97
2023-01-11T08:08:19.335Z,76.20
2023-01-11T08:09:21.108Z,80.93
2023-01-11T08:10:24.153Z,55.13
2023-01-11T08:11:44.597Z,66.15
2023-01-11T08:13:06.914Z,70.80
2023-01-11T08:14:29.212Z,63.20
2023-01-11T08:15:32.338Z,76.60
2023-01-11T08:16:34.157Z,68.25
2023-01-11T08:17:38.935Z,73.60
2023-01-11T08:18:40.714Z,53.50
2023-01-11T08:19:44.264Z,72.20
2023-01-11T08:20:47.609Z,48.15
2023-01-11T08:21:49.958Z,55.78
2023-01-11T08:22:53.052Z,44.00
2023-01-11T08:23:55.552Z,51.75
2023-01-11T08:24:58.325Z,47.00
2023-01-11T08:26:04.044Z,34.90
2023-01-11T08:27:06.904Z,36.13
2023-01-11T08:28:13.138Z,33.70
2023-01-11T08:29:15.455Z,41.95
2023-01-11T08:30:19.069Z,46.75
2023-01-11T08:31:21.442Z,43.05
2023-01-11T08:32:24.279Z,48.35
2023-01-11T08:33:26.172Z,47.13
2023-01-11T08:34:29.183Z,44.45
2023-01-11T08:35:31.580Z,49.55
2023-01-11T08:36:34.417Z,48.38
2023-01-11T08:37:37.186Z,44.00
2023-01-11T08:38:39.778Z,42.40
2023-01-11T08:39:43.204Z,39.55
2023-01-11T08:40:45.040Z,38.83
2023-01-11T08:41:47.846Z,38.85
2023-01-11T08:42:50.836Z,38.90
2023-01-11T08:43:54.961Z,37.65
2023-01-11T08:44:57.695Z,44.38
2023-01-11T08:45:59.954Z,40.58
2023-01-11T08:47:03.087Z,44.95
2023-01-11T08:48:06.203Z,39.95
2023-01-11T08:49:12.228Z,34.97
2023-01-11T08:50:16.283Z,40.88
2023-01-11T08:51:18.169Z,40.67
2023-01-11T08:52:39.208Z,43.03
2023-01-11T08:53:40.992Z,45.47
2023-01-11T08:54:44.042Z,43.33
2023-01-11T08:55:47.793Z,52.08
2023-01-11T08:56:50.592Z,45.13
2023-01-11T08:57:53.378Z,46.35
2023-01-11T08:58:56.595Z,42.70
2023-01-11T08:59:59.581Z,44.90
2023-01-11T09:01:03.763Z,44.40
2023-01-11T09:02:07.654Z,44.47
2023-01-11T09:03:11.795Z,34.97
2023-01-11T09:04:24.212Z,32.72
2023-01-11T09:05:28.404Z,30.45
2023-01-11T09:06:30.252Z,31.30
2023-01-11T09:07:33.001Z,29.35
2023-01-11T09:08:35.234Z,32.88
2023-01-11T09:09:37.970Z,31.75
2023-01-11T09:10:39.771Z,33.65
2023-01-11T09:11:58.858Z,31.02
2023-01-11T09:13:01.091Z,32.85
2023-01-11T09:14:05.364Z,31.77
2023-01-11T09:15:09.680Z,31.90
2023-01-11T09:16:11.557Z,28.83
2023-01-11T09:17:14.391Z,32.58
2023-01-11T09:18:16.260Z,29.77
2023-01-11T09:19:19.063Z,28.20
2023-01-11T09:20:22.185Z,29.80
2023-01-11T09:21:24.882Z,31.55
2023-01-11T09:22:27.850Z,30.80
2023-01-11T09:23:29.588Z,29.42
2023-01-11T09:24:32.700Z,31.73
2023-01-11T09:25:34.619Z,31.35
2023-01-11T09:26:38.329Z,29.08
2023-01-11T09:27:44.000Z,28.75
2023-01-11T09:28:45.890Z,30.60
2023-01-11T09:29:50.130Z,29.58
2023-01-11T09:30:53.499Z,31.95
2023-01-11T09:31:56.433Z,30.73
2023-01-11T09:32:58.350Z,31.90
2023-01-11T09:34:01.278Z,29.20
2023-01-11T09:35:04.595Z,31.48
2023-01-11T09:36:08.559Z,31.48
2023-01-11T09:37:11.575Z,32.55
2023-01-11T09:38:13.325Z,32.67
2023-01-11T09:39:18.812Z,29.15
2023-01-11T09:40:23.198Z,31.35
2023-01-11T09:41:38.732Z,28.85
2023-01-11T09:42:43.448Z,27.02
2023-01-11T09:43:50.755Z,30.25
2023-01-11T09:44:58.982Z,30.55
2023-01-11T09:46:06.756Z,27.33
2023-01-11T09:47:14.730Z,29.52
2023-01-11T09:48:26.981Z,28.27
2023-01-11T09:49:32.594Z,29.98
2023-01-11T09:50:40.005Z,26.98
2023-01-11T09:51:42.397Z,28.75
2023-01-11T09:52:47.456Z,28.27
2023-01-11T09:53:52.415Z,30.45
2023-01-11T09:54:54.545Z,30.13
2023-01-11T09:55:59.669Z,28.65
2023-01-11T09:57:10.559Z,26.42
2023-01-11T09:58:30.937Z,26.45
2023-01-11T09:59:42.534Z,24.60
2023-01-11T10:00:54.253Z,25.10
2023-01-11T10:02:03.578Z,26.63
2023-01-11T10:03:31.273Z,23.48
2023-01-11T10:04:58.526Z,25.27
2023-01-11T10:06:09.048Z,22.52
2023-01-11T10:07:24.946Z,22.77
2023-01-11T10:18:25.525Z,22.88
2023-01-11T10:18:31.357Z,20.98
2023-01-11T10:18:34.255Z,21.58
2023-01-11T10:19:41.347Z,21.10
2023-01-11T10:20:47.536Z,22.70
2023-01-11T10:21:54.668Z,22.13
2023-01-11T10:23:00.798Z,21.77
2023-01-11T10:24:07.373Z,20.92
2023-01-11T10:25:18.659Z,20.98
2023-01-11T10:26:27.560Z,19.77
2023-01-11T10:27:34.378Z,19.45
2023-01-11T10:28:43.225Z,21.15
2023-01-11T10:30:08.317Z,19.25
2023-01-11T10:31:29.876Z,18.98
2023-01-11T10:32:54.131Z,20.88
2023-01-11T10:34:18.570Z,19.65
2023-01-11T10:35:41.167Z,20.02
2023-01-11T10:37:04.832Z,19.40
2023-01-11T10:38:30.814Z,21.50
2023-01-11T10:39:55.555Z,19.98
2023-01-11T10:41:08.304Z,19.77
2023-01-11T10:42:16.703Z,19.92
2023-01-11T10:43:21.837Z,17.83
2023-01-11T10:44:31.801Z,19.33
2023-01-11T10:45:38.449Z,18.50
2023-01-11T10:46:45.168Z,20.30
2023-01-11T10:47:56.451Z,20.83
2023-01-11T10:49:04.735Z,18.77
2023-01-11T10:50:15.699Z,20.25
2023-01-11T10:51:40.802Z,21.23
2023-01-11T10:52:47.925Z,19.50
2023-01-11T10:53:59.776Z,19.38
2023-01-11T10:55:12.788Z,18.63
2023-01-11T10:56:23.162Z,17.13
2023-01-11T10:57:39.815Z,18.08
2023-01-11T10:59:15.705Z,16.50
2023-01-11T11:00:22.658Z,18.33
2023-01-11T11:01:50.258Z,17.70
2023-01-11T11:03:22.630Z,16.73
2023-01-11T11:04:37.406Z,17.02
2023-01-11T11:05:43.944Z,16.63
2023-01-11T11:06:55.293Z,17.05
2023-01-11T11:08:02.919Z,16.67
2023-01-11T11:09:13.110Z,16.75
2023-01-11T11:10:21.741Z,16.40
2023-01-11T11:11:31.654Z,15.48
2023-01-11T11:12:41.573Z,16.65
2023-01-11T11:13:50.607Z,16.33
2023-01-11T11:14:59.740Z,15.57
2023-01-11T11:16:05.222Z,16.02
2023-01-11T11:17:16.332Z,16.05
2023-01-11T11:18:19.452Z,15.77
2023-01-11T11:19:25.681Z,15.90
2023-01-11T11:20:31.477Z,15.18
2023-01-11T11:21:37.407Z,16.35
2023-01-11T11:22:40.398Z,16.50
2023-01-11T11:23:42.957Z,15.98
2023-01-11T11:24:50.472Z,15.23
2023-01-11T11:25:57.889Z,16.35
2023-01-11T11:27:04.418Z,16.25
2023-01-11T11:28:09.130Z,15.82
2023-01-11T11:29:12.984Z,17.25
2023-01-11T11:30:27.315Z,15.43
2023-01-11T11:31:31.193Z,16.63
2023-01-11T11:32:37.135Z,16.77
2023-01-11T11:33:41.228Z,17.50
2023-01-11T11:34:48.232Z,16.95
2023-01-11T11:35:57.101Z,16.95
2023-01-11T11:37:01.613Z,16.50
2023-01-11T11:38:04.775Z,16.80
2023-01-11T11:39:11.073Z,17.58
2023-01-11T11:40:29.406Z,16.23
2023-01-11T11:41:46.413Z,18.63
2023-01-11T11:42:49.254Z,15.93
2023-01-11T11:43:52.012Z,17.85
2023-01-11T11:45:12.676Z,17.48
2023-01-11T11:46:24.246Z,17.13
2023-01-11T11:47:26.971Z,17.50
2023-01-11T11:48:31.362Z,15.32
2023-01-11T11:49:34.819Z,16.30
2023-01-11T11:50:46.153Z,15.63
2023-01-11T11:51:49.500Z,15.18
2023-01-11T11:52:54.662Z,13.52
2023-01-11T11:53:57.835Z,13.98
2023-01-11T11:55:00.732Z,13.45
2023-01-11T11:56:08.979Z,12.98
2023-01-11T11:57:16.995Z,11.80
2023-01-11T11:58:21.238Z,12.63
2023-01-11T11:59:26.689Z,12.63
2023-01-11T12:00:31.193Z,12.70
2023-01-11T12:01:35.473Z,12.13
2023-01-11T12:02:44.992Z,11.77
2023-01-11T12:03:48.834Z,12.35
2023-01-11T12:04:52.095Z,12.18
2023-01-11T12:05:58.624Z,13.02
2023-01-11T12:07:09.387Z,13.90
2023-01-11T12:08:15.777Z,15.00
2023-01-11T12:09:25.443Z,14.55
2023-01-11T12:10:29.225Z,14.90
2023-01-11T12:11:34.992Z,15.05
2023-01-11T12:12:50.165Z,15.95
2023-01-11T12:14:02.942Z,15.80
2023-01-11T12:15:19.614Z,15.45
2023-01-11T12:16:23.639Z,16.42
2023-01-11T12:17:27.377Z,13.90
2023-01-11T12:18:33.197Z,14.63
2023-01-11T12:19:41.188Z,15.32
2023-01-11T12:20:44.760Z,16.92
2023-01-11T12:21:48.858Z,16.02
2023-01-11T12:23:09.917Z,17.70
2023-01-11T12:24:17.266Z,17.08
2023-01-11T12:25:21.941Z,16.70
2023-01-11T12:26:27.629Z,16.52
2023-01-11T12:27:38.019Z,17.38
2023-01-11T12:29:18.391Z,17.65
2023-01-11T12:30:25.511Z,19.30
2023-01-11T12:31:33.664Z,18.42
2023-01-11T12:33:03.216Z,17.80
2023-01-11T12:34:11.627Z,17.70
2023-01-11T12:35:36.652Z,16.38
2023-01-11T12:36:46.512Z,16.65
2023-01-11T12:38:05.977Z,16.88
2023-01-11T12:39:16.843Z,15.90
2023-01-11T12:40:24.243Z,17.08
2023-01-11T12:41:47.964Z,17.00
2023-01-11T12:43:02.285Z,18.35
2023-01-11T12:44:05.636Z,17.55
2023-01-11T12:45:17.587Z,16.38
2023-01-11T12:46:26.127Z,17.00
2023-01-11T12:47:48.203Z,17.17
2023-01-11T12:49:05.517Z,17.10
2023-01-11T12:50:12.823Z,17.08
2023-01-11T12:51:25.377Z,18.27
2023-01-11T12:52:52.592Z,18.02
2023-01-11T12:54:04.568Z,17.50
2023-01-11T12:55:20.556Z,17.42
2023-01-11T12:56:33.532Z,17.02
2023-01-11T12:57:46.333Z,17.13
2023-01-11T12:58:53.034Z,17.13
2023-01-11T13:00:20.003Z,19.05
2023-01-11T13:01:36.400Z,17.30
2023-01-11T13:03:03.643Z,16.63
2023-01-11T13:04:42.263Z,16.15
2023-01-11T13:05:54.892Z,17.67
2023-01-11T13:07:03.815Z,16.52
2023-01-11T13:08:13.691Z,17.05
2023-01-11T13:09:27.050Z,16.40
2023-01-11T13:10:36.481Z,17.00
2023-01-11T13:11:48.663Z,16.35
2023-01-11T13:12:57.671Z,16.42
2023-01-11T13:14:07.058Z,15.38
2023-01-11T13:15:21.026Z,15.73
2023-01-11T13:16:26.525Z,15.20
2023-01-11T13:17:36.126Z,15.85
2023-01-11T13:18:42.106Z,15.10
2023-01-11T13:19:49.820Z,16.85
2023-01-11T13:21:03.593Z,15.20
2023-01-11T13:22:13.684Z,15.40
2023-01-11T13:23:20.218Z,14.90
2023-01-11T13:24:27.263Z,14.68
2023-01-11T13:25:33.703Z,15.48
2023-01-11T13:26:38.565Z,15.13
2023-01-11T13:27:41.222Z,14.02
2023-01-11T13:28:45.597Z,14.48
2023-01-11T13:29:50.312Z,15.30
2023-01-11T13:30:53.252Z,14.48
2023-01-11T13:31:58.797Z,13.82
2023-01-11T13:33:06.012Z,15.70
2023-01-11T13:34:16.194Z,14.52
2023-01-11T13:35:20.267Z,20.48
2023-01-11T13:36:27.874Z,19.73
2023-01-11T13:37:54.811Z,17.05
2023-01-11T13:39:00.199Z,13.40
2023-01-11T13:40:10.405Z,13.90
2023-01-11T13:41:17.583Z,15.80
2023-01-11T13:42:23.207Z,27.83
2023-01-11T13:43:37.673Z,18.85
2023-01-11T13:44:42.638Z,16.15
2023-01-11T13:45:48.917Z,14.82
2023-01-11T13:47:01.709Z,15.18
2023-01-11T13:48:11.975Z,15.52
2023-01-11T13:49:22.235Z,15.45
2023-01-11T13:50:29.207Z,16.38
2023-01-11T13:51:35.077Z,15.00
2023-01-11T13:52:51.267Z,16.02
2023-01-11T13:53:58.389Z,15.60
2023-01-11T13:55:07.176Z,15.57
2023-01-11T13:56:15.806Z,14.52
2023-01-11T13:57:44.484Z,14.95
2023-01-11T13:58:51.938Z,14.80
2023-01-11T13:59:58.711Z,14.20
2023-01-11T14:01:07.510Z,16.55
2023-01-11T14:02:22.060Z,15.65
2023-01-11T14:03:30.279Z,16.30
2023-01-11T14:04:44.399Z,24.65
2023-01-11T14:05:55.693Z,18.55
2023-01-11T14:07:10.818Z,15.73
2023-01-11T14:08:23.710Z,15.55
2023-01-11T14:09:41.608Z,14.23
2023-01-11T14:10:54.567Z,15.55
2023-01-11T14:12:02.337Z,17.52
2023-01-11T14:13:50.358Z,16.02
2023-01-11T14:15:05.673Z,15.40
2023-01-11T14:16:10.983Z,17.83
2023-01-11T14:17:38.294Z,17.80
2023-01-11T14:18:45.059Z,17.58
2023-01-11T14:19:53.591Z,17.05
2023-01-11T14:21:04.008Z,18.00
2023-01-11T14:22:22.493Z,60.63
2023-01-11T14:23:27.910Z,26.23
2023-01-11T14:24:33.422Z,28.20
2023-01-11T14:25:38.589Z,25.38
2023-01-11T14:26:55.715Z,24.90
2023-01-11T14:28:20.055Z,22.58
2023-01-11T14:29:35.503Z,22.85
2023-01-11T14:31:07.812Z,23.00
2023-01-11T14:32:37.569Z,21.65
2023-01-11T14:34:02.137Z,20.83
2023-01-11T14:35:30.597Z,21.40
2023-01-11T14:36:50.204Z,21.08
2023-01-11T14:38:09.224Z,20.83
2023-01-11T14:39:40.464Z,21.02
2023-01-11T14:40:55.781Z,20.05
2023-01-11T14:42:16.273Z,20.88
2023-01-11T14:43:37.255Z,21.88
2023-01-11T14:44:54.597Z,21.80
2023-01-11T14:46:24.485Z,21.65
2023-01-11T14:47:40.380Z,21.70
2023-01-11T14:48:50.153Z,22.13
2023-01-11T14:50:03.309Z,21.90
2023-01-11T14:51:23.798Z,22.70
2023-01-11T14:52:39.672Z,21.83
2023-01-11T14:53:45.967Z,24.38
2023-01-11T14:54:50.629Z,23.70
2023-01-11T14:55:53.508Z,23.35
2023-01-11T14:56:57.128Z,23.05
2023-01-11T14:58:05.970Z,23.50
2023-01-11T14:59:24.513Z,25.58
2023-01-11T15:01:10.199Z,24.10
2023-01-11T15:02:26.072Z,22.35
2023-01-11T15:03:47.812Z,22.73
2023-01-11T15:05:08.225Z,23.95
2023-01-11T15:06:14.813Z,23.55
2023-01-11T15:07:24.223Z,24.10